Time;durP1;ratioP1;P1;durP2;ratioP2;P2;SDS_P1;SDS_P2;PMS_P1;PMS_P2;Temp;Humidity;BMP_temperature;BMP_pressure;BME280_temperature;BME280_humidity;BME280_pressure;Samples;Min_cycle;Max_cycle;Signal;HPM_P1;HPM_P2
2021/08/05 00:00:43;;;;;;;7.53;5.40;;;;;;;17.98;85.20;98609.84;4083714;85;21074;-82
2021/08/05 00:06:46;;;;;;;10.48;5.53;;;;;;;17.97;85.49;98607.52;4087140;85;21089;-82
2021/08/05 00:12:47;;;;;;;8.88;4.87;;;;;;;17.95;85.80;98596.08;4087892;85;21028;-82
2021/08/05 00:18:49;;;;;;;9.50;5.33;;;;;;;18.01;86.17;98598.53;4084139;85;21109;-81
2021/08/05 00:24:50;;;;;;;9.90;5.87;;;;;;;18.12;86.39;98597.03;4055083;85;21025;-81
2021/08/05 00:30:52;;;;;;;8.53;5.58;;;;;;;18.24;86.54;98601.09;4079826;85;21578;-81
2021/08/05 00:36:54;;;;;;;10.28;5.78;;;;;;;18.15;86.76;98595.40;4089711;85;21490;-81
2021/08/05 00:42:55;;;;;;;8.28;5.87;;;;;;;18.27;86.87;98597.45;4085751;85;21815;-81
2021/08/05 00:48:57;;;;;;;8.35;6.28;;;;;;;18.30;87.12;98589.66;4089662;85;21076;-81
2021/08/05 00:54:59;;;;;;;10.65;6.78;;;;;;;18.20;87.36;98581.79;4079006;85;21061;-82
2021/08/05 01:01:11;;;;;;;9.23;7.90;;;;;;;18.12;87.59;98557.49;4085197;85;21077;-81
2021/08/05 01:07:18;;;;;;;11.88;8.08;;;;;;;18.03;88.11;98534.55;4087452;85;21600;-82
2021/08/05 01:13:34;;;;;;;11.30;8.28;;;;;;;18.02;88.68;98544.69;3902442;88;21117;-81
2021/08/05 01:19:41;;;;;;;11.40;8.73;;;;;;;18.03;89.03;98535.94;4013961;86;21553;-80
2021/08/05 01:25:49;;;;;;;;;;;;;;;18.00;89.17;98518.81;3957942;88;21085;-80
2021/08/05 01:31:50;;;;;;;20.85;9.08;;;;;;;17.93;90.25;98511.30;3946700;88;20248;-81
2021/08/05 01:37:53;;;;;;;9.55;8.20;;;;;;;17.88;90.00;98502.92;3952021;88;21046;-82
2021/08/05 01:43:56;;;;;;;14.00;9.45;;;;;;;17.88;90.35;98503.52;3959145;88;21056;-81
2021/08/05 01:49:59;;;;;;;11.33;9.75;;;;;;;17.83;90.54;98492.96;3939170;87;21071;-80
2021/08/05 01:56:00;;;;;;;12.95;10.23;;;;;;;17.81;90.93;98493.39;4079588;85;21065;-80
2021/08/05 02:02:02;;;;;;;16.23;11.68;;;;;;;17.83;91.34;98496.52;4087023;85;21061;-81
2021/08/05 02:08:09;;;;;;;13.65;12.20;;;;;;;17.88;91.46;98493.23;4087175;85;21109;-80
2021/08/05 02:14:15;;;;;;;15.72;12.35;;;;;;;17.94;91.62;98489.31;4089296;85;21062;-82
2021/08/05 02:20:17;;;;;;;15.68;13.35;;;;;;;17.92;91.76;98478.67;4086837;85;21034;-82
2021/08/05 02:26:20;;;;;;;16.17;13.15;;;;;;;17.91;92.06;98484.64;4079892;85;21054;-82
2021/08/05 02:32:22;;;;;;;18.87;15.00;;;;;;;17.94;92.21;98477.64;4083872;85;21049;-82
2021/08/05 02:38:26;;;;;;;18.90;15.78;;;;;;;17.82;92.23;98471.41;4100977;83;21479;-82
2021/08/05 02:44:28;;;;;;;17.95;15.90;;;;;;;17.73;92.64;98476.79;4086072;85;21074;-83
2021/08/05 02:50:31;;;;;;;22.82;15.83;;;;;;;17.68;92.94;98475.92;4077935;85;21113;-82
2021/08/05 02:56:33;;;;;;;16.75;13.00;;;;;;;17.70;93.28;98485.97;4083261;85;21568;-83
2021/08/05 03:02:35;;;;;;;15.38;11.75;;;;;;;17.66;93.47;98481.14;4086364;85;21010;-82
2021/08/05 03:08:41;;;;;;;14.00;10.93;;;;;;;17.67;93.65;98480.52;4081744;85;21047;-83
2021/08/05 03:14:45;;;;;;;16.07;9.65;;;;;;;17.74;93.67;98489.44;4081102;85;21584;-83
2021/08/05 03:20:47;;;;;;;15.13;10.63;;;;;;;17.75;93.71;98499.29;4080333;85;21046;-84
2021/08/05 03:26:48;;;;;;;12.00;9.50;;;;;;;17.69;93.42;98465.05;4063991;85;21537;-83
2021/08/05 03:32:49;;;;;;;10.80;9.13;;;;;;;17.46;93.82;98446.47;4078080;85;21703;-84
2021/08/05 03:38:52;;;;;;;10.53;9.43;;;;;;;17.35;94.15;98438.41;4088114;85;21085;-83
2021/08/05 03:44:53;;;;;;;10.50;9.10;;;;;;;17.36;94.29;98440.55;4156584;83;30355;-83
2021/08/05 03:50:54;;;;;;;12.30;9.98;;;;;;;17.31;94.61;98444.63;4155688;83;21048;-83
2021/08/05 03:56:55;;;;;;;12.93;10.08;;;;;;;17.17;94.89;98456.81;4120431;83;21084;-83
2021/08/05 04:02:57;;;;;;;12.82;10.53;;;;;;;17.17;95.18;98443.59;4156080;83;21045;-82
2021/08/05 04:08:58;;;;;;;10.95;9.08;;;;;;;17.26;95.57;98445.77;4158324;83;21038;-82
2021/08/05 04:14:59;;;;;;;8.63;7.80;;;;;;;17.31;95.49;98443.84;4144680;83;21036;-84
2021/08/05 04:21:01;;;;;;;12.05;8.85;;;;;;;17.35;95.73;98436.24;3972937;86;21083;-84
2021/08/05 04:27:02;;;;;;;9.78;8.00;;;;;;;17.33;95.78;98440.83;4010101;86;21711;-83
2021/08/05 04:33:04;;;;;;;12.88;10.70;;;;;;;17.35;95.80;98427.95;4003850;86;21550;-84
2021/08/05 04:39:05;;;;;;;13.30;11.90;;;;;;;17.30;95.83;98412.65;3985165;86;21058;-83
2021/08/05 04:45:07;;;;;;;14.05;12.53;;;;;;;17.26;95.91;98411.94;4008588;85;21211;-84
2021/08/05 04:51:08;;;;;;;16.87;13.40;;;;;;;17.18;96.12;98395.34;4008717;86;21138;-85
2021/08/05 04:57:11;;;;;;;15.48;13.88;;;;;;;17.11;96.17;98383.88;4013163;86;21077;-83
2021/08/05 05:03:12;;;;;;;14.70;12.33;;;;;;;17.07;96.49;98388.70;4004891;86;21143;-84
2021/08/05 05:09:14;;;;;;;17.82;13.75;;;;;;;17.04;96.46;98385.42;4003412;86;21586;-84
2021/08/05 05:15:18;;;;;;;16.60;12.20;;;;;;;17.00;96.54;98378.42;4006919;86;21098;-84
2021/08/05 05:21:19;;;;;;;15.20;13.58;;;;;;;16.93;96.71;98371.08;4025728;86;21395;-84
2021/08/05 05:27:21;;;;;;;16.77;12.78;;;;;;;16.87;96.84;98354.84;4008879;86;21061;-83
2021/08/05 05:33:24;;;;;;;14.53;11.22;;;;;;;16.82;96.96;98348.44;4015986;85;21045;-83
2021/08/05 05:39:50;;;;;;;14.15;10.85;;;;;;;16.87;97.32;98373.40;4157830;83;21075;-84
2021/08/05 05:45:51;;;;;;;13.98;10.60;;;;;;;16.86;97.09;98389.83;4151320;83;21024;-85
2021/08/05 05:51:58;;;;;;;13.05;10.55;;;;;;;16.77;97.07;98370.30;4164396;83;21584;-84
2021/08/05 05:58:03;;;;;;;10.35;9.20;;;;;;;16.72;97.36;98345.34;4150308;83;21601;-84
2021/08/05 06:04:04;;;;;;;10.72;8.83;;;;;;;16.75;97.69;98327.89;4159708;83;21027;-83
2021/08/05 06:10:07;;;;;;;9.18;8.23;;;;;;;16.83;97.84;98331.25;4131608;83;21020;-82
2021/08/05 06:16:08;;;;;;;10.60;8.45;;;;;;;16.84;97.90;98319.77;4136234;83;20992;-85
2021/08/05 06:22:10;;;;;;;9.58;8.58;;;;;;;16.88;98.02;98303.86;4154529;83;21064;-83
2021/08/05 06:28:12;;;;;;;9.03;8.13;;;;;;;16.91;98.14;98298.09;4166726;83;21031;-83
2021/08/05 06:34:13;;;;;;;11.75;7.67;;;;;;;16.91;98.16;98282.88;4153745;83;21047;-84
2021/08/05 06:40:15;;;;;;;9.30;8.30;;;;;;;16.84;98.19;98285.22;4154480;83;21582;-83
2021/08/05 06:46:16;;;;;;;8.18;7.25;;;;;;;16.84;98.45;98292.72;4162581;83;21043;-82
2021/08/05 06:52:17;;;;;;;9.45;7.95;;;;;;;16.86;98.67;98326.25;4114173;83;22239;-83
2021/08/05 06:58:22;;;;;;;9.30;8.30;;;;;;;16.87;98.70;98342.99;4031744;85;21010;-83
2021/08/05 07:04:24;;;;;;;9.55;8.48;;;;;;;16.82;98.65;98349.81;4037111;86;21114;-84
2021/08/05 07:10:26;;;;;;;10.98;9.58;;;;;;;16.81;98.82;98346.89;4041438;86;21041;-83
2021/08/05 07:16:28;;;;;;;11.30;9.05;;;;;;;16.80;98.85;98346.70;4035333;86;21132;-83
2021/08/05 07:22:29;;;;;;;11.95;8.80;;;;;;;16.75;98.79;98329.87;4051863;85;21139;-84
2021/08/05 07:28:30;;;;;;;11.97;8.93;;;;;;;16.76;99.24;98323.13;3990647;86;21086;-84
2021/08/05 07:34:34;;;;;;;9.98;8.98;;;;;;;16.78;99.33;98322.09;4011304;86;21072;-84
2021/08/05 07:40:36;;;;;;;11.60;9.10;;;;;;;16.77;99.41;98314.39;4026577;86;21046;-85
2021/08/05 07:46:37;;;;;;;10.25;7.95;;;;;;;16.79;99.42;98307.05;4011198;86;21068;-84
2021/08/05 07:52:38;;;;;;;9.40;6.92;;;;;;;16.79;99.58;98298.77;4032082;86;21071;-84
2021/08/05 07:58:40;;;;;;;9.58;8.20;;;;;;;16.82;99.71;98304.80;4019470;86;21055;-86
2021/08/05 08:04:41;;;;;;;9.05;7.85;;;;;;;16.84;99.72;98295.48;4051466;85;21160;-83
2021/08/05 08:10:42;;;;;;;8.23;7.42;;;;;;;16.84;99.81;98289.95;4067737;85;21139;-83
2021/08/05 08:16:44;;;;;;;9.88;8.28;;;;;;;16.82;99.86;98295.13;4064577;85;21105;-83
2021/08/05 08:22:45;;;;;;;10.48;9.38;;;;;;;16.84;100.00;98297.66;3971348;86;21391;-83
2021/08/05 08:28:46;;;;;;;13.08;10.28;;;;;;;16.79;100.00;98291.26;4147579;84;21013;-82
2021/08/05 08:34:47;;;;;;;13.48;11.65;;;;;;;16.79;100.00;98294.02;4152800;83;21116;-82
2021/08/05 08:40:50;;;;;;;15.25;12.47;;;;;;;16.79;100.00;98289.09;4158412;83;21637;-82
2021/08/05 08:46:53;;;;;;;18.35;12.28;;;;;;;16.78;100.00;98291.69;4155271;83;21719;-83
2021/08/05 08:53:04;;;;;;;14.53;12.33;;;;;;;16.78;100.00;98286.16;4159006;84;21736;-84
2021/08/05 08:59:06;;;;;;;14.78;11.97;;;;;;;16.77;100.00;98277.09;4142528;83;21025;-84
2021/08/05 09:05:09;;;;;;;14.47;11.18;;;;;;;16.80;100.00;98271.31;4152530;83;21029;-83
2021/08/05 09:11:11;;;;;;;11.75;10.55;;;;;;;16.83;100.00;98263.53;4158283;83;21033;-84
2021/08/05 09:17:20;;;;;;;13.10;11.65;;;;;;;16.87;100.00;98255.92;4137127;83;21433;-84
2021/08/05 09:23:21;;;;;;;13.48;12.10;;;;;;;16.94;100.00;98255.13;4152358;83;21032;-83
2021/08/05 09:29:25;;;;;;;13.05;10.60;;;;;;;17.01;100.00;98255.55;4112002;82;102168;-84
2021/08/05 09:35:29;;;;;;;12.82;9.63;;;;;;;17.06;100.00;98246.73;4101523;85;21008;-84
2021/08/05 09:41:31;;;;;;;9.83;8.75;;;;;;;17.10;100.00;98248.81;4094966;85;21982;-84
2021/08/05 09:47:41;;;;;;;9.78;8.80;;;;;;;17.06;100.00;98230.14;4094398;85;21104;-83
2021/08/05 09:54:04;;;;;;;12.55;10.40;;;;;;;17.05;100.00;98222.44;4097545;84;21072;-84
2021/08/05 10:00:09;;;;;;;10.70;9.43;;;;;;;17.00;100.00;98214.70;4096127;84;21085;-83
2021/08/05 10:06:13;;;;;;;10.90;9.28;;;;;;;16.98;100.00;98210.20;4095349;84;21050;-82
2021/08/05 10:12:23;;;;;;;10.38;9.38;;;;;;;17.01;100.00;98194.72;4090447;84;21053;-83
2021/08/05 10:18:33;;;;;;;10.85;9.05;;;;;;;17.03;100.00;98195.06;4093758;84;22312;-83
2021/08/05 10:24:38;;;;;;;9.35;8.13;;;;;;;16.98;100.00;98175.65;4099589;84;20994;-83
2021/08/05 10:30:41;;;;;;;13.28;9.38;;;;;;;17.00;100.00;98183.50;4101118;84;21076;-82
2021/08/05 10:36:44;;;;;;;13.85;9.65;;;;;;;17.01;100.00;98177.53;4091377;85;21042;-83
2021/08/05 10:42:49;;;;;;;11.95;8.65;;;;;;;16.98;100.00;98174.27;4096036;85;21096;-84
2021/08/05 10:48:50;;;;;;;11.93;9.50;;;;;;;16.92;100.00;98165.55;4090035;84;21070;-82
2021/08/05 10:54:54;;;;;;;14.95;10.93;;;;;;;16.90;100.00;98161.84;4099672;84;21044;-84
2021/08/05 11:01:02;;;;;;;14.35;11.48;;;;;;;16.90;100.00;98143.88;4095410;84;21072;-86
2021/08/05 11:07:32;;;;;;;14.78;12.10;;;;;;;16.93;100.00;98142.22;4087060;84;21074;-82
2021/08/05 11:13:34;;;;;;;18.32;13.40;;;;;;;16.95;100.00;98124.59;4089760;85;21031;-84
2021/08/05 11:19:38;;;;;;;22.93;15.40;;;;;;;16.97;100.00;98113.28;4087904;85;21040;-82
2021/08/05 11:25:57;;;;;;;21.90;16.32;;;;;;;16.98;100.00;98114.04;4091936;84;22227;-82
2021/08/05 11:32:19;;;;;;;20.62;15.18;;;;;;;16.95;100.00;98104.64;4104908;84;21074;-81
2021/08/05 11:38:20;;;;;;;18.30;15.10;;;;;;;16.99;100.00;98099.78;4058580;85;22322;-81
2021/08/05 11:44:35;;;;;;;19.62;16.12;;;;;;;17.01;100.00;98093.80;4017014;86;21623;-82
2021/08/05 11:50:37;;;;;;;21.33;15.88;;;;;;;16.99;100.00;98075.52;3985015;87;21615;-82
2021/08/05 11:56:39;;;;;;;23.20;16.05;;;;;;;16.96;100.00;98063.34;3982693;87;21052;-82
2021/08/05 12:02:41;;;;;;;21.55;15.93;;;;;;;16.94;100.00;98059.47;3988718;87;21579;-82
2021/08/05 12:08:46;;;;;;;24.75;16.97;;;;;;;16.92;100.00;98040.56;4101423;84;21049;-82
2021/08/05 12:14:53;;;;;;;25.65;17.85;;;;;;;16.94;100.00;98022.15;4092396;84;22176;-82
2021/08/05 12:21:02;;;;;;;24.32;18.17;;;;;;;16.94;100.00;98019.39;4087131;84;21057;-82
2021/08/05 12:27:03;;;;;;;25.23;17.05;;;;;;;16.92;100.00;98010.15;4089699;84;21041;-82
2021/08/05 12:33:10;;;;;;;27.85;17.12;;;;;;;16.93;100.00;98013.08;4089480;84;21852;-83
2021/08/05 12:39:11;;;;;;;33.05;18.42;;;;;;;16.95;100.00;98001.58;4094978;84;21064;-82
2021/08/05 12:45:16;;;;;;;33.40;18.77;;;;;;;16.94;100.00;97990.36;4099727;84;21610;-84
2021/08/05 12:51:20;;;;;;;35.03;17.95;;;;;;;16.96;100.00;97986.56;4093853;84;21513;-84
2021/08/05 12:57:21;;;;;;;27.85;17.95;;;;;;;17.00;100.00;97985.83;4088616;84;21046;-84
2021/08/05 13:03:44;;;;;;;20.23;14.68;;;;;;;17.07;100.00;97992.51;4072057;85;21053;-84
2021/08/05 13:09:54;;;;;;;20.60;14.28;;;;;;;17.08;100.00;97974.13;4092338;85;21065;-83
2021/08/05 13:15:55;;;;;;;16.87;12.82;;;;;;;17.08;100.00;97957.53;4087191;84;21006;-84
2021/08/05 13:21:58;;;;;;;15.43;12.55;;;;;;;17.13;100.00;97958.34;4093468;84;21021;-84
2021/08/05 13:28:15;;;;;;;16.75;10.38;;;;;;;17.17;100.00;97959.02;4090991;85;21114;-85
2021/08/05 13:34:16;;;;;;;12.00;8.40;;;;;;;17.19;100.00;97951.03;4091983;84;21625;-84
2021/08/05 13:40:24;;;;;;;13.72;8.90;;;;;;;17.21;100.00;97952.00;4233312;81;22363;-83
2021/08/05 13:46:27;;;;;;;14.00;10.30;;;;;;;17.15;100.00;97927.48;4153520;83;21608;-84
2021/08/05 13:52:28;;;;;;;12.88;10.72;;;;;;;17.12;100.00;97915.33;4121994;82;21027;-84
2021/08/05 13:58:31;;;;;;;15.15;10.13;;;;;;;17.09;100.00;97907.92;4181415;82;21028;-85
2021/08/05 14:04:33;;;;;;;14.73;9.93;;;;;;;17.12;100.00;97896.56;4129912;83;21048;-83
2021/08/05 14:10:34;;;;;;;13.75;9.70;;;;;;;17.11;100.00;97884.75;4153371;83;21061;-83
2021/08/05 14:16:36;;;;;;;10.43;8.55;;;;;;;17.15;100.00;97876.32;4156052;83;21750;-83
2021/08/05 14:22:44;;;;;;;9.58;8.50;;;;;;;17.17;100.00;97862.23;4133284;84;21086;-84
2021/08/05 14:28:47;;;;;;;13.72;10.25;;;;;;;17.21;100.00;97849.05;4205275;83;21033;-84
2021/08/05 14:34:48;;;;;;;13.95;10.23;;;;;;;17.22;100.00;97833.23;4168111;83;21091;-86
2021/08/05 14:40:51;;;;;;;9.88;7.92;;;;;;;17.23;100.00;97818.80;4241612;81;21040;-83
2021/08/05 14:46:52;;;;;;;7.50;6.37;;;;;;;17.24;100.00;97800.38;4268760;81;21503;-84
2021/08/05 14:52:53;;;;;;;9.78;5.95;;;;;;;17.24;100.00;97795.60;4259801;81;21010;-85
2021/08/05 14:59:01;;;;;;;8.73;6.92;;;;;;;17.24;100.00;97790.70;4156225;81;22890;-83
2021/08/05 15:05:03;;;;;;;8.05;4.90;;;;;;;17.23;100.00;97778.08;4110006;84;21019;-84
2021/08/05 15:11:17;;;;;;;7.08;4.53;;;;;;;17.20;100.00;97767.91;4101824;84;21094;-84
2021/08/05 15:17:24;;;;;;;7.08;4.12;;;;;;;17.16;100.00;97765.27;4067811;85;20992;-84
2021/08/05 15:23:26;;;;;;;5.80;3.22;;;;;;;17.12;100.00;97755.55;4068079;84;22317;-84
2021/08/05 15:29:28;;;;;;;3.98;3.35;;;;;;;17.09;100.00;97739.26;4102295;84;21119;-85
2021/08/05 15:35:29;;;;;;;4.50;3.40;;;;;;;17.08;100.00;97734.17;4005865;86;21101;-84
2021/08/05 15:41:34;;;;;;;3.45;2.52;;;;;;;17.05;100.00;97722.63;3977339;84;10000537;-85
2021/08/05 15:47:34;;;;;;;3.83;2.67;;;;;;;17.04;100.00;97719.08;4114924;85;21045;-84
2021/08/05 15:53:46;;;;;;;4.17;2.58;;;;;;;17.02;100.00;97701.41;4118489;85;21081;-84
2021/08/05 15:59:48;;;;;;;8.30;2.83;;;;;;;17.00;100.00;97692.78;4111932;85;21891;-84
2021/08/05 16:05:57;;;;;;;4.25;2.55;;;;;;;16.97;100.00;97682.63;4114396;85;21094;-84
2021/08/05 16:12:09;;;;;;;3.12;2.60;;;;;;;16.95;100.00;97674.00;4112694;85;21116;-83
2021/08/05 16:18:16;;;;;;;2.47;2.27;;;;;;;16.93;100.00;97665.38;4094701;85;21697;-84
2021/08/05 16:24:24;;;;;;;3.10;2.42;;;;;;;16.92;100.00;97659.70;4115818;85;21097;-84
2021/08/05 16:37:36;;;;;;;6.50;2.10;;;;;;;16.85;100.00;97651.05;4120669;84;21617;-85
2021/08/05 16:43:40;;;;;;;4.35;2.40;;;;;;;16.79;100.00;97644.55;4128549;85;21031;-85
2021/08/05 16:49:42;;;;;;;2.15;1.50;;;;;;;16.75;100.00;97634.84;4097076;85;21302;-85
2021/08/05 16:55:47;;;;;;;5.62;1.70;;;;;;;16.71;100.00;97623.91;4103798;85;21408;-85
2021/08/05 17:01:50;;;;;;;3.17;1.42;;;;;;;16.69;100.00;97608.41;4123964;85;21003;-85
2021/08/05 17:08:16;;;;;;;6.00;1.80;;;;;;;16.69;100.00;97603.48;4096991;85;21021;-85
2021/08/05 17:14:24;;;;;;;12.17;1.80;;;;;;;16.70;100.00;97603.62;4118028;85;21090;-86
2021/08/05 17:20:25;;;;;;;5.37;1.70;;;;;;;16.67;100.00;97590.71;4095958;84;21054;-87
2021/08/05 17:26:27;;;;;;;4.33;1.72;;;;;;;16.67;100.00;97594.26;4087308;85;21022;-85
2021/08/05 17:32:28;;;;;;;4.20;1.65;;;;;;;16.65;100.00;97593.92;4113941;85;21021;-86
2021/08/05 17:38:30;;;;;;;2.17;1.20;;;;;;;16.63;100.00;97585.30;4107433;85;21373;-87
2021/08/05 17:44:31;;;;;;;2.52;1.30;;;;;;;16.61;100.00;97571.80;4117956;85;21188;-86
2021/08/05 17:50:34;;;;;;;2.80;1.40;;;;;;;16.59;100.00;97569.48;4099313;84;21005;-86
2021/08/05 17:56:36;;;;;;;1.47;1.32;;;;;;;16.57;100.00;97574.67;4112486;85;21067;-86
2021/08/05 18:09:16;;;;;;;2.65;1.55;;;;;;;16.54;100.00;97571.42;4103670;85;21003;-86
2021/08/05 18:15:17;;;;;;;2.90;1.20;;;;;;;16.52;100.00;97558.66;4102674;84;21082;-86
2021/08/05 18:21:20;;;;;;;4.17;1.50;;;;;;;16.49;100.00;97561.57;4087729;85;20965;-86
2021/08/05 18:40:36;;;;;;;3.22;1.72;;;;;;;16.33;100.00;97550.66;4121698;84;21495;-85
2021/08/05 18:46:41;;;;;;;3.67;1.70;;;;;;;16.27;100.00;97541.41;4129511;85;21890;-86
2021/08/05 18:52:59;;;;;;;2.40;1.72;;;;;;;16.21;100.00;97535.66;4105924;85;21641;-85
2021/08/05 18:59:00;;;;;;;3.67;1.40;;;;;;;16.18;100.00;97539.32;4092246;85;21067;-86
2021/08/05 19:05:08;;;;;;;2.50;1.30;;;;;;;16.12;100.00;97536.97;4123086;85;21745;-85
2021/08/05 19:11:17;;;;;;;3.50;2.20;;;;;;;16.09;100.00;97532.34;4035821;85;21197;-85
2021/08/05 19:17:25;;;;;;;7.20;1.77;;;;;;;16.07;100.00;97520.22;4086875;84;21644;-85
2021/08/05 19:23:32;;;;;;;3.58;1.60;;;;;;;16.06;100.00;97520.81;4076644;85;21151;-86
2021/08/05 19:29:34;;;;;;;2.15;1.95;;;;;;;16.02;100.00;97527.05;4065439;85;21583;-84
2021/08/05 19:35:35;;;;;;;3.17;1.50;;;;;;;16.02;100.00;97530.44;3947227;85;9999709;-85
2021/08/05 19:41:37;;;;;;;2.72;1.92;;;;;;;16.00;100.00;97528.72;4077818;85;21073;-86
2021/08/05 19:47:38;;;;;;;3.52;2.00;;;;;;;16.00;100.00;97536.41;4087199;85;21123;-85
2021/08/05 19:53:47;;;;;;;3.55;2.40;;;;;;;16.00;100.00;97541.14;4063232;84;21094;-85
2021/08/05 20:00:08;;;;;;;4.67;1.70;;;;;;;16.00;100.00;97536.41;4044582;85;21007;-85
2021/08/05 20:06:09;;;;;;;2.42;1.52;;;;;;;16.00;100.00;97546.66;4028055;85;21057;-87
2021/08/05 20:12:30;;;;;;;3.27;1.42;;;;;;;15.98;100.00;97544.95;4079016;85;21092;-86
2021/08/05 20:18:39;;;;;;;6.75;1.30;;;;;;;16.02;100.00;97534.58;4010271;85;21104;-85
2021/08/05 20:25:11;;;;;;;1.32;1.00;;;;;;;16.03;100.00;97538.87;4099285;84;21019;-85
2021/08/05 20:31:25;;;;;;;4.40;0.90;;;;;;;16.06;100.00;97526.93;3985723;84;10000142;-85
2021/08/05 20:37:41;;;;;;;2.02;0.80;;;;;;;16.07;100.00;97529.25;4112945;84;21086;-84
2021/08/05 20:43:42;;;;;;;1.50;1.10;;;;;;;16.11;100.00;97531.30;4104027;84;21004;-85
2021/08/05 20:50:01;;;;;;;1.72;0.85;;;;;;;16.13;100.00;97516.42;4112150;84;21601;-85
2021/08/05 20:56:03;;;;;;;6.67;1.60;;;;;;;16.16;100.00;97516.16;4101668;85;21051;-85
2021/08/05 21:02:08;;;;;;;4.65;1.90;;;;;;;16.17;100.00;97523.20;4055423;84;21107;-85
2021/08/05 21:08:12;;;;;;;6.58;1.70;;;;;;;16.16;100.00;97522.42;4064241;85;21135;-85
2021/08/05 21:14:13;;;;;;;3.22;1.50;;;;;;;16.12;100.00;97517.64;4068138;84;21122;-84
2021/08/05 21:20:14;;;;;;;3.75;1.57;;;;;;;16.12;100.00;97512.12;4101331;84;21016;-84
2021/08/05 21:26:17;;;;;;;4.75;1.67;;;;;;;16.12;100.00;97507.98;4083320;83;21975;-85
2021/08/05 21:32:18;;;;;;;5.17;1.35;;;;;;;16.13;100.00;97504.62;4070020;84;21379;-85
2021/08/05 21:38:20;;;;;;;2.70;1.87;;;;;;;16.14;100.00;97502.02;4055649;84;21047;-85
2021/08/05 21:44:21;;;;;;;7.90;2.17;;;;;;;16.14;100.00;97503.39;4043676;85;21110;-86
2021/08/05 21:50:27;;;;;;;5.03;2.15;;;;;;;16.12;100.00;97486.50;4078589;85;21366;-85
2021/08/05 21:56:31;;;;;;;6.08;2.33;;;;;;;16.11;100.00;97486.34;4047870;85;21055;-85
2021/08/05 22:02:33;;;;;;;3.98;2.33;;;;;;;16.10;100.00;97484.81;4070360;85;21034;-84
2021/08/05 22:08:34;;;;;;;8.00;2.45;;;;;;;16.10;100.00;97475.16;4015336;86;21079;-85
2021/08/05 22:14:36;;;;;;;5.08;2.08;;;;;;;16.07;100.00;97465.76;3984996;86;21146;-87
2021/08/05 22:20:37;;;;;;;4.17;2.08;;;;;;;16.04;100.00;97466.66;4102555;84;21571;-86
2021/08/05 22:26:40;;;;;;;7.28;2.37;;;;;;;16.01;100.00;97462.63;4121725;84;21063;-84
2021/08/05 22:32:42;;;;;;;3.80;2.15;;;;;;;15.96;100.00;97459.84;4123002;83;21089;-84
2021/08/05 22:38:43;;;;;;;5.08;2.00;;;;;;;15.94;100.00;97453.23;4113213;85;21003;-84
2021/08/05 22:44:45;;;;;;;2.83;1.90;;;;;;;15.89;100.00;97457.34;4097152;84;21066;-84
2021/08/05 22:50:47;;;;;;;2.67;2.12;;;;;;;15.86;100.00;97452.72;4101538;85;21078;-84
2021/08/05 22:56:53;;;;;;;4.08;2.10;;;;;;;15.86;100.00;97449.17;4107588;83;21058;-84
2021/08/05 23:03:01;;;;;;;6.30;2.52;;;;;;;15.82;100.00;97434.74;4104699;85;21082;-85
2021/08/05 23:09:02;;;;;;;4.72;2.30;;;;;;;15.80;100.00;97435.19;4111381;84;21042;-84
2021/08/05 23:15:06;;;;;;;3.55;2.12;;;;;;;15.74;100.00;97436.95;4101375;84;21012;-84
2021/08/05 23:21:08;;;;;;;4.47;2.50;;;;;;;15.68;100.00;97449.17;4113872;83;21073;-83
2021/08/05 23:27:16;;;;;;;4.90;2.45;;;;;;;15.68;100.00;97455.91;4080416;85;21042;-85
2021/08/05 23:33:17;;;;;;;5.85;3.35;;;;;;;15.63;100.00;97442.83;4115514;84;21392;-84
2021/08/05 23:39:19;;;;;;;5.53;2.40;;;;;;;15.62;100.00;97446.81;4117652;85;21035;-85
2021/08/05 23:45:21;;;;;;;3.37;2.50;;;;;;;15.61;100.00;97456.91;4103403;85;21034;-84
2021/08/05 23:51:22;;;;;;;4.35;2.20;;;;;;;15.60;100.00;97453.98;4058914;84;21066;-86
2021/08/05 23:57:23;;;;;;;3.35;1.82;;;;;;;15.59;100.00;97455.20;4035453;85;21479;-84
